Time;durP1;ratioP1;P1;durP2;ratioP2;P2;SDS_P1;SDS_P2;PMS_P1;PMS_P2;Temp;Humidity;BMP_temperature;BMP_pressure;BME280_temperature;BME280_humidity;BME280_pressure;Samples;Min_cycle;Max_cycle;Signal;HPM_P1;HPM_P2
2021/08/06 00:01:25;;;;;;;10.40;9.05;;;15.80;99.90;;;;;;5041597;28;20457;-75
2021/08/06 00:03:52;;;;;;;11.15;10.07;;;15.80;99.90;;;;;;5051083;28;20091;-74
2021/08/06 00:06:20;;;;;;;9.35;8.48;;;15.70;99.90;;;;;;5051631;28;20049;-74
2021/08/06 00:08:46;;;;;;;12.52;10.05;;;15.70;99.90;;;;;;5050979;28;20132;-73
2021/08/06 00:11:14;;;;;;;11.75;10.02;;;15.60;99.90;;;;;;5051475;28;20049;-72
2021/08/06 00:13:41;;;;;;;10.50;9.50;;;15.50;99.90;;;;;;5046659;28;20481;-74
2021/08/06 00:16:07;;;;;;;11.50;10.40;;;15.40;99.90;;;;;;5031774;28;20096;-74
2021/08/06 00:18:34;;;;;;;10.02;9.07;;;15.50;99.90;;;;;;5034664;28;20489;-74
2021/08/06 00:21:00;;;;;;;10.35;8.27;;;15.60;99.90;;;;;;5050552;28;20099;-73
2021/08/06 00:23:28;;;;;;;9.27;8.30;;;15.70;99.90;;;;;;5038092;28;20107;-74
2021/08/06 00:25:55;;;;;;;9.05;8.25;;;15.80;99.90;;;;;;5031322;28;20564;-75
2021/08/06 00:28:23;;;;;;;9.90;9.00;;;15.90;99.90;;;;;;5030884;28;20060;-76
2021/08/06 00:30:49;;;;;;;8.77;7.97;;;15.90;99.90;;;;;;5031200;28;20103;-74
2021/08/06 00:33:16;;;;;;;11.02;10.02;;;15.90;99.90;;;;;;5040488;28;20550;-73
2021/08/06 00:35:42;;;;;;;10.38;9.38;;;15.90;99.90;;;;;;5045134;28;20049;-74
2021/08/06 00:38:09;;;;;;;9.55;8.60;;;15.70;99.90;;;;;;5031548;28;20095;-73
2021/08/06 00:40:36;;;;;;;11.48;10.27;;;15.70;99.90;;;;;;5030827;28;20076;-73
2021/08/06 00:43:02;;;;;;;9.65;8.73;;;15.60;99.90;;;;;;5049592;28;20070;-74
2021/08/06 00:45:30;;;;;;;9.88;8.80;;;15.50;99.90;;;;;;5031203;28;20099;-76
2021/08/06 00:47:57;;;;;;;10.50;9.48;;;15.50;99.90;;;;;;5030836;28;20517;-74
2021/08/06 00:50:24;;;;;;;10.45;9.45;;;15.50;99.90;;;;;;5031006;28;20046;-75
2021/08/06 00:52:51;;;;;;;10.85;9.85;;;15.50;99.90;;;;;;5031315;28;20099;-74
2021/08/06 00:55:18;;;;;;;11.60;9.63;;;15.50;99.90;;;;;;5042540;28;20045;-77
2021/08/06 00:57:45;;;;;;;11.88;10.13;;;15.50;99.90;;;;;;5050260;28;20115;-74
2021/08/06 01:00:12;;;;;;;11.70;10.50;;;15.50;99.90;;;;;;5040666;28;20049;-73
2021/08/06 01:02:48;;;;;;;10.38;9.45;;;15.40;99.90;;;;;;5052152;28;20102;-72
2021/08/06 01:05:19;;;;;;;13.10;10.40;;;15.40;99.90;;;;;;5039925;28;20547;-73
2021/08/06 01:07:53;;;;;;;9.93;8.93;;;15.40;99.90;;;;;;5041862;28;20053;-73
2021/08/06 01:10:24;;;;;;;11.55;8.95;;;15.40;99.90;;;;;;5037558;28;20501;-74
2021/08/06 01:12:54;;;;;;;12.68;10.15;;;15.50;99.90;;;;;;5049757;28;20101;-74
2021/08/06 01:15:23;;;;;;;9.57;8.77;;;15.50;99.90;;;;;;5053594;28;20494;-73
2021/08/06 01:17:51;;;;;;;11.10;9.98;;;15.50;99.90;;;;;;5036945;28;20049;-72
2021/08/06 01:20:22;;;;;;;11.57;10.38;;;15.50;99.90;;;;;;5055365;28;20459;-73
2021/08/06 01:22:53;;;;;;;10.82;9.73;;;15.60;99.90;;;;;;5055861;28;20053;-73
2021/08/06 01:25:35;;;;;;;10.80;9.70;;;15.60;99.90;;;;;;5043831;28;20049;-73
2021/08/06 01:28:03;;;;;;;12.68;10.18;;;15.60;99.90;;;;;;5043805;28;20071;-73
2021/08/06 01:30:30;;;;;;;10.80;9.80;;;15.70;99.90;;;;;;5053020;28;20091;-74
2021/08/06 01:32:57;;;;;;;10.35;9.35;;;15.80;99.90;;;;;;5037598;28;20072;-74
2021/08/06 01:35:24;;;;;;;13.25;11.07;;;15.80;99.90;;;;;;5055298;28;20389;-73
2021/08/06 01:37:50;;;;;;;12.13;10.93;;;15.80;99.90;;;;;;5045877;28;20065;-74
2021/08/06 01:40:17;;;;;;;11.23;10.13;;;15.80;99.90;;;;;;5044829;28;20489;-73
2021/08/06 01:42:50;;;;;;;12.55;11.30;;;15.80;99.90;;;;;;5055747;28;20096;-76
2021/08/06 01:45:21;;;;;;;12.50;11.20;;;15.80;99.90;;;;;;5053521;28;20051;-75
2021/08/06 01:47:51;;;;;;;12.65;10.77;;;15.70;99.90;;;;;;5053708;28;20053;-76
2021/08/06 01:50:24;;;;;;;11.23;10.13;;;15.80;99.90;;;;;;5040327;28;20104;-74
2021/08/06 01:52:59;;;;;;;12.98;10.95;;;15.80;99.90;;;;;;5034014;28;20053;-78
2021/08/06 01:55:28;;;;;;;13.35;11.32;;;15.80;99.90;;;;;;5034507;28;20461;-75
2021/08/06 01:57:58;;;;;;;12.27;11.00;;;15.80;99.90;;;;;;5048990;28;20046;-76
2021/08/06 02:00:26;;;;;;;12.93;10.98;;;15.80;99.90;;;;;;5034258;28;20049;-75
2021/08/06 02:02:53;;;;;;;11.60;10.50;;;15.80;99.90;;;;;;5050860;28;20041;-75
2021/08/06 02:05:21;;;;;;;12.77;11.60;;;15.70;99.90;;;;;;5053810;28;20041;-77
2021/08/06 02:07:48;;;;;;;11.68;10.50;;;15.70;99.90;;;;;;5053308;28;20555;-76
2021/08/06 02:10:16;;;;;;;12.27;10.85;;;15.60;99.90;;;;;;5052703;28;20520;-73
2021/08/06 02:12:43;;;;;;;12.18;10.98;;;15.60;99.90;;;;;;5054332;28;20049;-72
2021/08/06 02:15:13;;;;;;;11.75;10.65;;;15.60;99.90;;;;;;5042889;28;20042;-73
2021/08/06 02:17:41;;;;;;;13.75;10.70;;;15.60;99.90;;;;;;5053444;28;20115;-74
2021/08/06 02:20:11;;;;;;;11.02;10.02;;;15.60;99.90;;;;;;5052455;28;20053;-72
2021/08/06 02:22:41;;;;;;;12.80;11.50;;;15.70;99.90;;;;;;5053416;28;20052;-73
2021/08/06 02:25:12;;;;;;;11.32;10.25;;;15.70;99.90;;;;;;5053549;28;20041;-73
2021/08/06 02:27:40;;;;;;;11.55;10.30;;;15.80;99.90;;;;;;5053642;28;20459;-73
2021/08/06 02:30:08;;;;;;;12.20;11.02;;;15.80;99.90;;;;;;5043818;28;20457;-74
2021/08/06 02:32:36;;;;;;;12.13;10.60;;;15.90;99.90;;;;;;5053629;28;20040;-74
2021/08/06 02:35:04;;;;;;;12.13;10.57;;;15.80;99.90;;;;;;5053093;28;20134;-74
2021/08/06 02:37:36;;;;;;;11.93;9.75;;;15.80;99.90;;;;;;5052849;28;20475;-75
2021/08/06 02:40:04;;;;;;;10.80;9.68;;;15.80;99.90;;;;;;5051840;28;20051;-75
2021/08/06 02:42:33;;;;;;;10.75;9.52;;;15.90;99.90;;;;;;5051192;28;20386;-75
2021/08/06 02:45:00;;;;;;;10.70;9.60;;;15.90;99.90;;;;;;5032935;28;20055;-74
2021/08/06 02:47:26;;;;;;;10.32;9.25;;;16.00;99.90;;;;;;5032941;28;20477;-74
2021/08/06 02:49:54;;;;;;;10.15;9.13;;;16.10;99.90;;;;;;5042161;28;20099;-76
2021/08/06 02:52:21;;;;;;;10.02;9.00;;;16.10;99.90;;;;;;5052347;28;20037;-74
2021/08/06 02:54:47;;;;;;;12.02;10.77;;;16.00;99.90;;;;;;5052134;28;20041;-75
2021/08/06 02:57:14;;;;;;;9.98;8.98;;;16.00;99.90;;;;;;5039442;28;20042;-75
2021/08/06 02:59:41;;;;;;;10.57;9.55;;;16.00;99.90;;;;;;5050764;28;20045;-75
2021/08/06 03:02:07;;;;;;;10.85;9.85;;;15.90;99.90;;;;;;5048300;28;20045;-75
2021/08/06 03:04:34;;;;;;;10.48;9.50;;;15.90;99.90;;;;;;5052176;28;20079;-75
2021/08/06 03:07:02;;;;;;;10.95;9.85;;;16.00;99.90;;;;;;5053175;28;20041;-73
2021/08/06 03:09:28;;;;;;;9.60;8.70;;;16.00;99.90;;;;;;5051327;28;20106;-75
2021/08/06 03:11:56;;;;;;;11.25;10.07;;;16.00;99.90;;;;;;5053128;28;20048;-73
2021/08/06 03:14:22;;;;;;;10.23;9.20;;;15.90;99.90;;;;;;5052298;28;20045;-74
2021/08/06 03:16:49;;;;;;;10.82;9.73;;;15.90;99.90;;;;;;5051418;28;20083;-74
2021/08/06 03:19:15;;;;;;;11.45;10.25;;;15.90;99.90;;;;;;5051538;28;20045;-73
2021/08/06 03:21:42;;;;;;;10.98;9.98;;;15.80;99.90;;;;;;5052383;28;20049;-73
2021/08/06 03:24:10;;;;;;;11.00;10.00;;;15.70;99.90;;;;;;5050374;28;20087;-73
2021/08/06 03:26:36;;;;;;;11.15;10.13;;;15.60;99.90;;;;;;5033084;28;20045;-74
2021/08/06 03:29:03;;;;;;;11.57;10.38;;;15.60;99.90;;;;;;5031209;28;20087;-73
2021/08/06 03:31:31;;;;;;;12.18;10.88;;;15.60;99.90;;;;;;5032515;28;20050;-72
2021/08/06 03:33:58;;;;;;;10.07;9.02;;;15.80;99.90;;;;;;5050092;28;20136;-72
2021/08/06 03:36:24;;;;;;;10.32;9.32;;;15.80;99.90;;;;;;5047639;28;20041;-74
2021/08/06 03:38:51;;;;;;;10.35;9.25;;;15.90;99.90;;;;;;5032996;28;20571;-70
2021/08/06 03:41:19;;;;;;;10.63;9.52;;;15.90;99.90;;;;;;5039888;28;20519;-68
2021/08/06 03:43:46;;;;;;;10.32;9.35;;;15.90;99.90;;;;;;5043233;28;20045;-70
2021/08/06 03:46:12;;;;;;;10.10;9.10;;;15.90;99.90;;;;;;5044724;28;20045;-68
2021/08/06 03:48:40;;;;;;;9.90;9.00;;;15.90;99.90;;;;;;5051182;28;20053;-69
2021/08/06 03:51:07;;;;;;;10.80;9.77;;;15.80;99.90;;;;;;5051300;28;20524;-73
2021/08/06 03:53:33;;;;;;;10.15;9.23;;;15.90;99.90;;;;;;5051599;28;20049;-72
2021/08/06 03:56:00;;;;;;;10.52;9.52;;;15.90;99.90;;;;;;5051987;28;20095;-67
2021/08/06 03:58:28;;;;;;;11.85;9.65;;;16.00;99.90;;;;;;5036577;28;20568;-67
2021/08/06 04:00:55;;;;;;;11.48;10.27;;;15.90;99.90;;;;;;5038894;28;20045;-67
2021/08/06 04:03:22;;;;;;;11.88;10.68;;;15.90;99.90;;;;;;5031625;28;20052;-69
2021/08/06 04:05:48;;;;;;;10.88;9.77;;;15.80;99.90;;;;;;5031510;28;20049;-73
2021/08/06 04:08:15;;;;;;;11.70;10.60;;;15.70;99.90;;;;;;5031689;28;20140;-72
2021/08/06 04:10:42;;;;;;;11.55;10.55;;;15.70;99.90;;;;;;5030990;28;20052;-68
2021/08/06 04:13:08;;;;;;;13.98;11.23;;;15.70;99.90;;;;;;5050409;28;20571;-65
2021/08/06 04:15:37;;;;;;;11.18;10.07;;;15.80;99.90;;;;;;5051915;28;20327;-69
2021/08/06 04:18:05;;;;;;;12.90;11.52;;;15.80;99.90;;;;;;5051326;28;20506;-71
2021/08/06 04:20:32;;;;;;;105.03;67.25;;;15.80;99.90;;;;;;5045797;28;20099;-71
2021/08/06 04:23:00;;;;;;;55.03;37.63;;;15.80;99.90;;;;;;5031397;28;20531;-70
2021/08/06 04:25:26;;;;;;;43.08;30.70;;;15.80;99.90;;;;;;5031627;28;20142;-69
2021/08/06 04:27:53;;;;;;;18.45;15.73;;;15.90;99.90;;;;;;5031220;28;20548;-69
2021/08/06 04:30:20;;;;;;;14.63;13.18;;;15.90;99.90;;;;;;5037288;28;20128;-69
2021/08/06 04:32:49;;;;;;;19.20;14.27;;;16.10;99.90;;;;;;5051766;28;20045;-70
2021/08/06 04:35:18;;;;;;;16.00;14.40;;;16.10;99.90;;;;;;5050486;28;20049;-68
2021/08/06 04:37:50;;;;;;;29.20;21.58;;;16.10;99.90;;;;;;5051856;28;20045;-71
2021/08/06 04:40:17;;;;;;;46.60;30.35;;;16.10;99.90;;;;;;5051420;28;20120;-69
2021/08/06 04:42:44;;;;;;;40.30;24.67;;;16.10;99.90;;;;;;5039553;28;20042;-69
2021/08/06 04:45:12;;;;;;;46.55;29.17;;;16.00;99.90;;;;;;5036818;28;20052;-70
2021/08/06 04:47:43;;;;;;;55.53;33.55;;;16.00;99.90;;;;;;5035117;28;20133;-70
2021/08/06 04:50:12;;;;;;;14.63;12.32;;;16.00;99.90;;;;;;5035129;28;20460;-68
2021/08/06 04:52:42;;;;;;;20.92;15.05;;;15.90;99.90;;;;;;5040596;28;20049;-70
2021/08/06 04:55:10;;;;;;;31.23;21.80;;;15.90;99.90;;;;;;5053384;28;20061;-69
2021/08/06 04:57:37;;;;;;;15.32;13.73;;;15.90;99.90;;;;;;5054325;28;20120;-69
2021/08/06 05:00:05;;;;;;;15.93;13.32;;;16.00;99.90;;;;;;5050681;28;20524;-74
2021/08/06 05:02:33;;;;;;;20.52;15.02;;;16.10;99.90;;;;;;5054091;28;20052;-75
2021/08/06 05:05:09;;;;;;;23.40;15.60;;;16.10;99.90;;;;;;5035642;28;20095;-77
2021/08/06 05:07:38;;;;;;;27.10;18.63;;;16.10;99.90;;;;;;5043150;28;20045;-76
2021/08/06 05:10:06;;;;;;;17.45;14.13;;;16.10;99.90;;;;;;5041177;28;20053;-70
2021/08/06 05:12:33;;;;;;;14.48;12.98;;;16.10;99.90;;;;;;5048276;28;20076;-71
2021/08/06 05:15:00;;;;;;;18.85;15.40;;;16.00;99.90;;;;;;5042807;28;20045;-75
2021/08/06 05:17:26;;;;;;;15.05;12.57;;;15.90;99.90;;;;;;5054572;28;20048;-73
2021/08/06 05:19:53;;;;;;;18.65;16.05;;;15.90;99.90;;;;;;5054142;28;20094;-73
2021/08/06 05:22:19;;;;;;;15.95;12.88;;;16.00;99.90;;;;;;5054066;28;20049;-72
2021/08/06 05:24:47;;;;;;;14.82;13.38;;;16.10;99.90;;;;;;5053659;28;20098;-72
2021/08/06 05:27:14;;;;;;;13.77;12.35;;;16.10;99.90;;;;;;5042662;28;20485;-73
2021/08/06 05:29:41;;;;;;;15.65;13.95;;;16.20;99.90;;;;;;5037595;28;20057;-73
2021/08/06 05:32:08;;;;;;;15.23;13.63;;;16.30;99.90;;;;;;5034160;28;20393;-68
2021/08/06 05:34:34;;;;;;;16.08;13.82;;;16.30;99.90;;;;;;5038468;28;20037;-73
2021/08/06 05:37:01;;;;;;;18.05;15.00;;;16.20;99.90;;;;;;5055271;28;20075;-72
2021/08/06 05:39:27;;;;;;;27.58;20.67;;;16.30;99.90;;;;;;5038033;28;20041;-75
2021/08/06 05:41:55;;;;;;;21.13;16.17;;;16.30;99.90;;;;;;5033902;28;20582;-71
2021/08/06 05:44:22;;;;;;;18.70;15.23;;;16.40;99.90;;;;;;5034115;28;20045;-69
2021/08/06 05:46:49;;;;;;;20.27;15.88;;;16.50;99.90;;;;;;5033790;28;20045;-67
2021/08/06 05:49:15;;;;;;;19.92;15.43;;;16.60;99.90;;;;;;5040730;28;20045;-70
2021/08/06 05:51:42;;;;;;;17.67;14.52;;;16.80;99.90;;;;;;5052233;28;20044;-69
2021/08/06 05:54:08;;;;;;;15.45;12.75;;;17.00;99.90;;;;;;5053248;28;20493;-70
2021/08/06 05:56:35;;;;;;;19.27;15.65;;;17.00;99.90;;;;;;5053276;28;20452;-71
2021/08/06 05:59:03;;;;;;;16.48;13.05;;;17.20;99.90;;;;;;5052347;28;20099;-71
2021/08/06 06:01:31;;;;;;;15.75;12.60;;;17.30;99.90;;;;;;5053228;28;20099;-72
2021/08/06 06:03:58;;;;;;;15.07;13.35;;;17.30;99.90;;;;;;5053236;28;20079;-71
2021/08/06 06:06:24;;;;;;;23.95;15.10;;;17.50;99.90;;;;;;5041955;28;20048;-71
2021/08/06 06:08:51;;;;;;;26.08;18.73;;;17.80;99.90;;;;;;5052944;28;20048;-71
2021/08/06 06:11:19;;;;;;;16.55;13.55;;;18.00;99.90;;;;;;5047589;28;20095;-73
2021/08/06 06:13:46;;;;;;;13.05;11.75;;;18.20;99.90;;;;;;5033822;28;20080;-71
2021/08/06 06:16:13;;;;;;;14.73;13.23;;;18.30;99.90;;;;;;5049465;28;20045;-70
2021/08/06 06:18:40;;;;;;;11.18;10.02;;;18.40;99.90;;;;;;5052460;28;20049;-69
2021/08/06 06:21:10;;;;;;;16.42;14.68;;;18.40;99.90;;;;;;5052332;28;20045;-74
2021/08/06 06:23:37;;;;;;;17.45;13.60;;;18.40;99.90;;;;;;5053686;28;20045;-74
2021/08/06 06:26:05;;;;;;;17.60;13.75;;;18.50;99.90;;;;;;5053259;28;20104;-67
2021/08/06 06:28:31;;;;;;;14.32;10.90;;;18.60;99.90;;;;;;5052660;28;20045;-66
2021/08/06 06:30:59;;;;;;;13.48;10.95;;;18.80;99.90;;;;;;5042965;28;20115;-66
2021/08/06 06:33:28;;;;;;;15.70;13.07;;;18.80;99.90;;;;;;5032824;28;20081;-71
2021/08/06 06:35:56;;;;;;;11.05;9.95;;;18.80;99.90;;;;;;5032585;28;20065;-70
2021/08/06 06:38:23;;;;;;;11.57;10.38;;;18.90;99.90;;;;;;5032750;28;20494;-71
2021/08/06 06:40:51;;;;;;;19.95;13.75;;;19.20;99.90;;;;;;5046850;28;20061;-71
2021/08/06 06:43:18;;;;;;;13.45;10.30;;;19.30;99.90;;;;;;5053066;28;20049;-68
2021/08/06 06:45:45;;;;;;;12.27;10.73;;;19.40;99.90;;;;;;5052684;28;20041;-69
2021/08/06 06:48:11;;;;;;;14.50;11.80;;;19.40;99.90;;;;;;5052688;28;20045;-69
2021/08/06 06:50:41;;;;;;;12.93;10.35;;;19.50;99.90;;;;;;5047146;28;20047;-70
2021/08/06 06:53:08;;;;;;;7.10;6.45;;;19.70;99.90;;;;;;5034642;28;20049;-71
2021/08/06 06:55:35;;;;;;;9.27;8.10;;;19.70;99.90;;;;;;5038074;28;20394;-73
2021/08/06 06:58:01;;;;;;;24.17;17.70;;;19.90;99.90;;;;;;5052164;28;20131;-72
2021/08/06 07:00:30;;;;;;;13.13;10.70;;;20.10;99.90;;;;;;5037543;28;20444;-70
2021/08/06 07:02:57;;;;;;;16.30;12.73;;;20.10;99.90;;;;;;5049381;28;20451;-72
2021/08/06 07:05:23;;;;;;;11.00;9.85;;;20.20;99.90;;;;;;5052455;28;20485;-74
2021/08/06 07:07:51;;;;;;;14.25;11.35;;;20.30;99.90;;;;;;5052525;28;20048;-69
2021/08/06 07:10:18;;;;;;;29.80;19.98;;;20.50;99.90;;;;;;5049702;28;20413;-71
2021/08/06 07:12:50;;;;;;;12.02;9.02;;;20.70;99.90;;;;;;5032321;28;20490;-74
2021/08/06 07:15:17;;;;;;;8.35;7.28;;;20.80;99.90;;;;;;5035939;28;20049;-72
2021/08/06 07:17:45;;;;;;;7.43;6.72;;;21.00;99.90;;;;;;5052121;28;20045;-69
2021/08/06 07:20:13;;;;;;;11.55;9.52;;;21.30;99.90;;;;;;5051073;28;20106;-70
2021/08/06 07:22:40;;;;;;;10.90;8.10;;;21.50;99.90;;;;;;5052265;28;20045;-71
2021/08/06 07:25:10;;;;;;;20.52;14.65;;;21.70;99.90;;;;;;5052862;28;20457;-71
2021/08/06 07:27:37;;;;;;;6.63;6.13;;;21.70;99.90;;;;;;5051626;28;20103;-75
2021/08/06 07:30:05;;;;;;;8.30;6.55;;;21.80;99.90;;;;;;5051469;28;20112;-70
2021/08/06 07:32:31;;;;;;;11.15;7.85;;;21.80;99.90;;;;;;5051922;28;20102;-71
2021/08/06 07:34:59;;;;;;;17.88;13.85;;;21.80;99.90;;;;;;5052620;28;20056;-71
2021/08/06 07:37:26;;;;;;;9.43;8.07;;;22.10;99.90;;;;;;5051885;28;20057;-71
2021/08/06 07:39:53;;;;;;;14.70;11.73;;;22.30;99.90;;;;;;5050795;28;20048;-70
2021/08/06 07:42:21;;;;;;;8.60;7.80;;;22.30;99.90;;;;;;5050554;28;20049;-68
2021/08/06 07:44:47;;;;;;;13.05;8.15;;;22.50;99.90;;;;;;5039021;28;20049;-67
2021/08/06 07:47:14;;;;;;;52.33;33.40;;;22.40;99.90;;;;;;5051170;28;20452;-68
2021/08/06 07:49:41;;;;;;;15.50;12.45;;;22.00;99.90;;;;;;5050910;28;20068;-70
2021/08/06 07:52:09;;;;;;;10.40;7.82;;;22.40;99.90;;;;;;5051170;28;20064;-69
2021/08/06 07:54:36;;;;;;;23.08;16.17;;;22.30;99.90;;;;;;5051245;28;20136;-70
2021/08/06 07:57:03;;;;;;;7.30;6.57;;;22.70;99.90;;;;;;5038795;28;20409;-69
2021/08/06 07:59:32;;;;;;;10.50;7.25;;;22.70;99.90;;;;;;5050764;28;20048;-70
2021/08/06 08:01:59;;;;;;;28.77;20.38;;;22.90;99.90;;;;;;5051265;28;20095;-70
2021/08/06 08:04:26;;;;;;;7.25;6.60;;;23.00;99.90;;;;;;5047770;28;20443;-72
2021/08/06 08:06:54;;;;;;;9.68;7.43;;;23.20;99.90;;;;;;5031571;28;20072;-70
2021/08/06 08:09:21;;;;;;;5.60;5.07;;;23.20;99.90;;;;;;5044117;28;20520;-66
2021/08/06 08:11:47;;;;;;;7.25;6.22;;;23.10;99.90;;;;;;5051447;28;20049;-67
2021/08/06 08:14:15;;;;;;;6.25;5.63;;;23.30;99.90;;;;;;5049519;28;20065;-71
2021/08/06 08:16:43;;;;;;;7.78;5.70;;;23.40;99.90;;;;;;5053153;28;20052;-66
2021/08/06 08:19:10;;;;;;;18.92;13.13;;;23.40;99.90;;;;;;5054217;28;20084;-70
2021/08/06 08:21:37;;;;;;;9.40;7.45;;;23.60;99.90;;;;;;5055339;28;20517;-72
2021/08/06 08:24:05;;;;;;;10.98;8.02;;;23.60;99.90;;;;;;5051558;28;20083;-70
2021/08/06 08:26:31;;;;;;;8.40;5.75;;;24.30;99.90;;;;;;5055222;28;20482;-71
2021/08/06 08:28:58;;;;;;;5.80;5.30;;;25.30;99.90;;;;;;5054268;28;20393;-71
2021/08/06 08:31:26;;;;;;;10.98;8.38;;;26.40;99.90;;;;;;5055085;28;20064;-69
2021/08/06 08:33:55;;;;;;;6.25;5.65;;;26.70;95.90;;;;;;5055396;28;20053;-71
2021/08/06 08:36:22;;;;;;;5.18;4.65;;;26.70;94.40;;;;;;5038735;28;20080;-70
2021/08/06 08:38:50;;;;;;;5.82;5.38;;;26.90;93.30;;;;;;5039963;28;20504;-71
2021/08/06 08:41:18;;;;;;;6.20;5.70;;;26.60;92.50;;;;;;5054871;28;20053;-74
2021/08/06 08:43:46;;;;;;;5.30;4.85;;;26.60;91.90;;;;;;5055197;28;20114;-73
2021/08/06 08:46:13;;;;;;;6.88;5.65;;;25.40;91.70;;;;;;5054678;28;20071;-71
2021/08/06 08:48:40;;;;;;;5.60;5.15;;;25.70;94.00;;;;;;5054331;28;20106;-72
2021/08/06 08:51:08;;;;;;;7.57;6.88;;;25.80;93.50;;;;;;5054013;28;20097;-73
2021/08/06 08:53:35;;;;;;;12.73;11.30;;;26.50;93.30;;;;;;5040651;28;20063;-68
2021/08/06 08:56:02;;;;;;;6.78;6.13;;;27.50;91.60;;;;;;5042101;28;20049;-67
2021/08/06 08:58:28;;;;;;;6.25;5.65;;;28.00;90.00;;;;;;5039781;28;20504;-68
2021/08/06 09:00:55;;;;;;;5.63;4.90;;;28.20;90.00;;;;;;5034483;28;20091;-69
2021/08/06 09:03:40;;;;;;;6.10;5.60;;;29.00;89.00;;;;;;5034551;28;20493;-71
2021/08/06 09:06:10;;;;;;;4.70;4.30;;;29.10;77.50;;;;;;5053881;28;20113;-68
2021/08/06 09:08:38;;;;;;;4.07;3.45;;;27.80;79.90;;;;;;5054425;28;20111;-67
2021/08/06 09:11:24;;;;;;;2.70;2.50;;;27.40;81.30;;;;;;5054261;28;20528;-67
2021/08/06 09:13:51;;;;;;;2.97;2.78;;;27.90;74.40;;;;;;5054544;28;20076;-71
2021/08/06 09:16:18;;;;;;;2.60;2.42;;;27.70;71.50;;;;;;5042027;28;20482;-73
2021/08/06 09:18:46;;;;;;;3.40;3.20;;;27.50;74.10;;;;;;5048946;28;20519;-73
2021/08/06 09:21:25;;;;;;;4.03;3.70;;;28.50;70.90;;;;;;5053976;28;20123;-69
2021/08/06 09:23:55;;;;;;;6.30;3.90;;;29.00;72.80;;;;;;5054136;28;20048;-69
2021/08/06 09:26:38;;;;;;;4.70;3.78;;;30.00;67.20;;;;;;5053412;28;20552;-74
2021/08/06 09:29:07;;;;;;;3.33;3.03;;;29.70;63.10;;;;;;5053454;28;20053;-72
2021/08/06 09:31:37;;;;;;;8.68;7.38;;;29.80;63.70;;;;;;5054016;28;20071;-67
2021/08/06 09:34:18;;;;;;;2.47;1.85;;;30.50;63.10;;;;;;5053764;28;20049;-69
2021/08/06 09:37:07;;;;;;;3.85;3.17;;;30.30;56.30;;;;;;5054323;28;20512;-69
2021/08/06 09:39:37;;;;;;;4.10;2.47;;;30.40;58.10;;;;;;5053835;28;20049;-73
2021/08/06 09:42:05;;;;;;;1.90;1.70;;;30.60;58.00;;;;;;5054493;28;20069;-72
2021/08/06 09:44:33;;;;;;;3.40;1.98;;;30.50;55.30;;;;;;5050375;28;20059;-72
2021/08/06 09:47:17;;;;;;;1.73;1.63;;;29.10;56.90;;;;;;5054457;28;20045;-71
2021/08/06 09:49:45;;;;;;;2.58;2.33;;;29.50;56.00;;;;;;5053167;28;20110;-70
2021/08/06 09:52:15;;;;;;;1.73;1.63;;;29.50;55.70;;;;;;5053723;28;20544;-71
2021/08/06 09:54:49;;;;;;;2.55;2.17;;;29.20;56.10;;;;;;5053478;28;20055;-71
2021/08/06 09:57:16;;;;;;;3.30;3.00;;;29.30;56.80;;;;;;5046730;28;20052;-68
2021/08/06 09:59:44;;;;;;;2.58;2.30;;;30.20;56.30;;;;;;5034415;28;20046;-77
2021/08/06 10:02:17;;;;;;;1.98;1.73;;;30.60;55.90;;;;;;5034856;28;20088;-69
2021/08/06 10:04:45;;;;;;;2.00;1.80;;;30.30;54.10;;;;;;5033610;28;20052;-69
2021/08/06 10:07:15;;;;;;;2.70;2.03;;;30.80;53.80;;;;;;5033891;28;20525;-71
2021/08/06 10:09:41;;;;;;;3.88;2.30;;;31.30;53.30;;;;;;5035635;28;20576;-71
2021/08/06 10:12:08;;;;;;;2.90;2.33;;;31.50;53.80;;;;;;5052627;28;20053;-71
2021/08/06 10:14:36;;;;;;;3.90;2.72;;;31.50;53.30;;;;;;5053422;28;20049;-69
2021/08/06 10:17:03;;;;;;;2.20;2.03;;;31.70;51.80;;;;;;5053914;28;20049;-70
2021/08/06 10:19:31;;;;;;;2.00;1.90;;;31.80;50.10;;;;;;5052830;28;20047;-70
2021/08/06 10:21:59;;;;;;;1.58;1.48;;;31.00;50.60;;;;;;5048270;28;20421;-70
2021/08/06 10:24:27;;;;;;;2.05;1.90;;;30.80;51.20;;;;;;5036088;28;20049;-69
2021/08/06 10:26:54;;;;;;;2.13;1.77;;;30.60;51.60;;;;;;5053211;28;20053;-70
2021/08/06 10:29:22;;;;;;;5.97;3.97;;;30.30;51.90;;;;;;5052609;28;20118;-70
2021/08/06 10:32:14;;;;;;;5.35;3.47;;;30.70;52.80;;;;;;5052824;28;20519;-71
2021/08/06 10:35:06;;;;;;;2.03;1.90;;;30.90;51.40;;;;;;5053131;28;20049;-70
2021/08/06 10:38:00;;;;;;;3.75;3.40;;;30.50;51.60;;;;;;5052375;28;20515;-70
2021/08/06 10:41:15;;;;;;;7.57;3.75;;;29.30;53.70;;;;;;5051793;28;20041;-70
2021/08/06 10:43:50;;;;;;;2.47;2.33;;;30.30;53.80;;;;;;5052653;28;20048;-71
2021/08/06 10:46:19;;;;;;;2.60;2.40;;;31.70;50.60;;;;;;5052733;28;20094;-72
2021/08/06 10:48:47;;;;;;;4.05;3.35;;;32.20;49.90;;;;;;5052431;28;20053;-71
2021/08/06 10:51:27;;;;;;;2.38;2.17;;;32.50;50.00;;;;;;5052268;28;20044;-71
2021/08/06 10:54:29;;;;;;;2.27;1.70;;;32.30;49.10;;;;;;5052593;28;20087;-71
2021/08/06 10:57:13;;;;;;;2.03;1.92;;;32.50;48.90;;;;;;5043848;28;20041;-70
2021/08/06 10:59:42;;;;;;;3.50;3.17;;;32.60;47.90;;;;;;5052193;28;20049;-70
2021/08/06 11:02:36;;;;;;;2.25;2.13;;;33.00;48.50;;;;;;5032954;28;20087;-73
2021/08/06 11:05:29;;;;;;;2.30;2.10;;;32.60;48.00;;;;;;5041532;28;20095;-68
2021/08/06 11:07:56;;;;;;;1.85;1.75;;;33.10;47.40;;;;;;5051361;28;20132;-69
2021/08/06 11:10:47;;;;;;;4.57;3.47;;;33.00;47.80;;;;;;5051269;28;20102;-68
2021/08/06 11:13:52;;;;;;;3.30;2.80;;;33.30;47.10;;;;;;5052054;28;20040;-70
2021/08/06 11:16:21;;;;;;;2.08;1.65;;;33.50;46.10;;;;;;5045924;28;20044;-68
2021/08/06 11:18:49;;;;;;;2.50;2.10;;;31.60;47.30;;;;;;5047773;28;20122;-68
2021/08/06 11:21:18;;;;;;;3.45;2.80;;;30.90;49.20;;;;;;5045664;28;20053;-69
2021/08/06 11:23:54;;;;;;;2.75;2.55;;;29.90;51.10;;;;;;5050043;28;20124;-70
2021/08/06 11:26:21;;;;;;;4.80;3.75;;;30.20;51.40;;;;;;5037686;28;20087;-70
2021/08/06 11:28:47;;;;;;;2.55;2.35;;;31.80;51.40;;;;;;5036398;28;20103;-70
2021/08/06 11:31:20;;;;;;;3.25;2.97;;;32.50;50.00;;;;;;5032167;28;20053;-72
2021/08/06 11:33:59;;;;;;;2.28;2.10;;;32.80;48.90;;;;;;5048239;28;20041;-71
2021/08/06 11:36:25;;;;;;;3.28;2.15;;;33.20;47.50;;;;;;5052286;28;20128;-69
2021/08/06 11:38:54;;;;;;;5.32;3.05;;;31.50;48.90;;;;;;5051568;28;20049;-69
2021/08/06 11:41:21;;;;;;;4.05;3.75;;;31.10;52.80;;;;;;5051612;28;20080;-69
2021/08/06 11:43:48;;;;;;;5.28;3.38;;;30.60;55.00;;;;;;5051520;28;20088;-70
2021/08/06 11:46:15;;;;;;;7.25;6.10;;;30.60;54.60;;;;;;5050906;28;20055;-70
2021/08/06 11:48:48;;;;;;;7.47;6.50;;;30.30;55.10;;;;;;5048811;28;20055;-71
2021/08/06 11:51:15;;;;;;;3.72;3.35;;;30.30;53.90;;;;;;5050093;28;20051;-69
2021/08/06 11:53:42;;;;;;;2.60;2.50;;;29.90;55.50;;;;;;5034392;28;20056;-68
2021/08/06 11:56:14;;;;;;;4.07;3.78;;;29.30;54.70;;;;;;5032434;28;20053;-71
2021/08/06 11:58:42;;;;;;;4.55;4.15;;;28.70;55.90;;;;;;5030804;28;20050;-72
2021/08/06 12:01:18;;;;;;;4.45;4.03;;;28.30;57.40;;;;;;5048323;28;20052;-72
2021/08/06 12:03:45;;;;;;;4.93;3.58;;;28.50;59.30;;;;;;5038949;28;20494;-71
2021/08/06 12:06:15;;;;;;;3.38;3.08;;;30.30;57.70;;;;;;5038997;28;20045;-70
2021/08/06 12:08:46;;;;;;;3.20;3.00;;;31.00;53.90;;;;;;5031154;28;20846;-70
2021/08/06 12:11:15;;;;;;;3.30;3.10;;;31.60;52.80;;;;;;5046249;28;20361;-71
2021/08/06 12:13:49;;;;;;;3.00;2.80;;;31.90;53.10;;;;;;5051234;28;20448;-70
2021/08/06 12:16:17;;;;;;;3.22;2.88;;;32.20;51.50;;;;;;5051008;28;20456;-70
2021/08/06 12:18:47;;;;;;;3.80;3.33;;;31.40;52.40;;;;;;5037456;28;20103;-70
2021/08/06 12:21:18;;;;;;;4.18;2.45;;;30.20;53.70;;;;;;5031331;28;20049;-70
2021/08/06 12:23:47;;;;;;;3.07;2.87;;;29.60;53.00;;;;;;5039482;28;20042;-74
2021/08/06 12:26:18;;;;;;;3.38;2.80;;;28.80;54.90;;;;;;5035312;28;20292;-72
2021/08/06 12:28:46;;;;;;;3.63;3.33;;;28.80;56.20;;;;;;5050586;28;20473;-75
2021/08/06 12:31:25;;;;;;;3.40;3.10;;;28.60;56.80;;;;;;5050365;28;20049;-73
2021/08/06 12:34:07;;;;;;;3.13;2.88;;;28.30;56.60;;;;;;5050732;28;20072;-72
2021/08/06 12:36:38;;;;;;;3.00;2.70;;;27.70;56.50;;;;;;5049827;28;20049;-72
2021/08/06 12:39:13;;;;;;;3.40;3.10;;;28.00;58.50;;;;;;5049249;28;20053;-73
2021/08/06 12:41:40;;;;;;;2.63;2.42;;;28.30;57.70;;;;;;5050821;28;20045;-73
2021/08/06 12:44:29;;;;;;;3.15;2.85;;;28.80;57.20;;;;;;5050830;28;20091;-72
2021/08/06 12:46:57;;;;;;;2.60;2.40;;;30.10;55.40;;;;;;5039593;28;20053;-72
2021/08/06 12:49:26;;;;;;;3.35;3.05;;;30.10;54.10;;;;;;5045491;28;20045;-73